createdAt,value
2023-03-27T00:00:00.364Z,60.62
2023-03-27T00:02:29.240Z,60.15
2023-03-27T00:04:57.791Z,60.03
2023-03-27T00:07:26.207Z,60.21
2023-03-27T00:09:54.249Z,60.07
2023-03-27T00:12:22.561Z,60.35
2023-03-27T00:14:50.738Z,60.64
2023-03-27T00:17:19.470Z,60.67
2023-03-27T00:19:47.517Z,60.72
2023-03-27T00:22:15.921Z,60.76
2023-03-27T00:24:44.078Z,60.79
2023-03-27T00:27:12.643Z,60.95
2023-03-27T00:29:41.552Z,60.91
2023-03-27T00:32:09.809Z,62.21
2023-03-27T00:34:38.126Z,62.31
2023-03-27T00:37:07.519Z,64.37
2023-03-27T00:39:35.689Z,62.93
2023-03-27T00:42:04.157Z,63.06
2023-03-27T00:44:35.764Z,62.32
2023-03-27T00:47:07.873Z,62.30
2023-03-27T00:49:37.656Z,63.83
2023-03-27T00:52:07.241Z,64.44
2023-03-27T00:54:41.646Z,63.07
2023-03-27T00:57:16.472Z,63.39
2023-03-27T00:59:46.647Z,63.08
2023-03-27T01:02:16.036Z,61.57
2023-03-27T01:04:46.518Z,60.81
2023-03-27T01:07:15.602Z,59.70
2023-03-27T01:09:46.042Z,59.08
2023-03-27T01:12:36.017Z,58.74
2023-03-27T01:15:10.644Z,58.55
2023-03-27T01:17:44.760Z,58.39
2023-03-27T01:20:35.565Z,57.92
2023-03-27T01:23:59.385Z,57.83
2023-03-27T01:27:00.197Z,57.90
2023-03-27T01:29:47.307Z,58.44
2023-03-27T01:32:22.411Z,59.21
2023-03-27T01:35:01.502Z,59.85
2023-03-27T01:38:06.102Z,59.09
2023-03-27T01:40:42.065Z,60.51
2023-03-27T01:44:04.829Z,62.83
2023-03-27T01:46:41.888Z,66.04
2023-03-27T01:49:40.191Z,65.57
2023-03-27T01:52:16.178Z,66.57
2023-03-27T01:54:53.540Z,66.01
2023-03-27T01:57:48.756Z,64.89
2023-03-27T02:00:22.710Z,65.94
2023-03-27T02:03:00.320Z,64.74
2023-03-27T02:05:43.277Z,64.05
2023-03-27T02:08:25.080Z,65.25
2023-03-27T02:10:58.768Z,64.81
2023-03-27T02:13:46.209Z,64.05
2023-03-27T02:16:28.962Z,64.93
2023-03-27T02:19:01.915Z,64.49
2023-03-27T02:21:32.612Z,63.84
2023-03-27T02:24:02.599Z,63.87
2023-03-27T02:26:32.523Z,65.03
2023-03-27T02:29:29.027Z,66.27
2023-03-27T02:32:17.448Z,66.04
2023-03-27T02:35:01.119Z,65.75
2023-03-27T02:37:33.191Z,66.18
2023-03-27T02:40:58.662Z,65.31
2023-03-27T02:43:52.965Z,63.87
2023-03-27T02:46:52.130Z,63.42
2023-03-27T02:49:27.196Z,63.38
2023-03-27T02:52:06.779Z,63.42
2023-03-27T02:54:42.922Z,63.09
2023-03-27T02:57:16.265Z,62.81
2023-03-27T03:00:25.990Z,62.53
2023-03-27T03:03:18.238Z,62.32
2023-03-27T03:05:53.305Z,62.23
2023-03-27T03:08:22.167Z,62.18
2023-03-27T03:10:50.641Z,62.34
2023-03-27T03:13:18.759Z,62.22
2023-03-27T03:15:48.908Z,62.13
2023-03-27T03:18:19.244Z,62.13
2023-03-27T03:20:47.550Z,62.45
2023-03-27T03:23:16.334Z,62.85
2023-03-27T03:25:45.993Z,63.47
2023-03-27T03:28:14.219Z,64.13
2023-03-27T03:30:45.808Z,65.83
2023-03-27T03:33:14.431Z,64.64
2023-03-27T03:35:46.985Z,64.55
2023-03-27T03:38:25.206Z,64.07
2023-03-27T03:40:59.283Z,63.98
2023-03-27T03:43:28.791Z,63.88
2023-03-27T03:45:57.708Z,64.85
2023-03-27T03:48:26.810Z,65.06
2023-03-27T03:50:55.192Z,65.10
2023-03-27T03:53:23.900Z,64.78
2023-03-27T03:55:56.163Z,64.35
2023-03-27T03:58:34.852Z,64.37
2023-03-27T04:01:06.171Z,65.55
2023-03-27T04:03:39.928Z,65.40
2023-03-27T04:06:11.027Z,65.37
2023-03-27T04:08:39.499Z,64.83
2023-03-27T04:11:34.357Z,65.43
2023-03-27T04:14:10.611Z,65.63
2023-03-27T04:16:42.737Z,66.94
2023-03-27T04:19:29.356Z,65.43
2023-03-27T04:22:04.792Z,65.44
2023-03-27T04:24:35.754Z,65.20
2023-03-27T04:27:04.112Z,66.17
2023-03-27T04:29:55.487Z,66.71
2023-03-27T04:32:29.627Z,65.75
2023-03-27T04:35:33.924Z,64.96
2023-03-27T04:38:14.042Z,64.43
2023-03-27T04:40:49.572Z,64.13
2023-03-27T04:43:19.191Z,63.40
2023-03-27T04:45:48.393Z,63.02
2023-03-27T04:48:16.771Z,62.98
2023-03-27T04:50:49.645Z,63.11
2023-03-27T04:53:31.385Z,62.59
2023-03-27T04:56:01.444Z,62.27
2023-03-27T04:58:30.348Z,62.02
2023-03-27T05:00:59.408Z,61.95
2023-03-27T05:03:49.272Z,62.02
2023-03-27T05:06:39.309Z,62.15
2023-03-27T05:09:13.033Z,62.08
2023-03-27T05:11:41.456Z,61.28
2023-03-27T05:14:10.724Z,61.22
2023-03-27T05:16:40.660Z,60.84
2023-03-27T05:19:08.971Z,61.60
2023-03-27T05:21:44.470Z,62.36
2023-03-27T05:24:14.789Z,62.06
2023-03-27T05:26:43.785Z,62.88
2023-03-27T05:29:12.917Z,62.64
2023-03-27T05:31:44.143Z,62.48
2023-03-27T05:34:38.747Z,64.16
2023-03-27T05:37:13.877Z,63.21
2023-03-27T05:40:06.129Z,62.78
2023-03-27T05:42:34.493Z,62.58
2023-03-27T05:45:03.067Z,62.43
2023-03-27T05:47:31.434Z,62.73
2023-03-27T05:49:59.629Z,62.30
2023-03-27T05:52:28.897Z,62.23
2023-03-27T05:54:57.822Z,61.90
2023-03-27T05:57:26.820Z,61.46
2023-03-27T05:59:57.898Z,60.93
2023-03-27T06:02:28.063Z,60.74
2023-03-27T06:04:59.506Z,60.42
2023-03-27T06:07:32.030Z,59.56
2023-03-27T06:10:13.121Z,58.77
2023-03-27T06:12:43.361Z,57.61
2023-03-27T06:15:38.694Z,57.36
2023-03-27T06:18:19.918Z,57.17
2023-03-27T06:20:48.711Z,57.37
2023-03-27T06:23:17.149Z,57.57
2023-03-27T06:25:47.631Z,56.67
2023-03-27T06:28:16.253Z,55.75
2023-03-27T06:30:50.610Z,56.00
2023-03-27T06:33:27.502Z,56.49
2023-03-27T06:36:00.949Z,57.33
2023-03-27T06:38:34.851Z,57.70
2023-03-27T06:41:04.701Z,58.25
2023-03-27T06:43:51.459Z,58.77
2023-03-27T06:46:45.179Z,59.72
2023-03-27T06:49:28.965Z,60.53
2023-03-27T06:51:58.020Z,60.37
2023-03-27T06:54:26.150Z,60.47
2023-03-27T06:56:55.560Z,60.57
2023-03-27T06:59:25.352Z,60.61
2023-03-27T07:01:57.832Z,59.12
2023-03-27T07:04:57.748Z,58.95
2023-03-27T07:07:39.511Z,59.00
2023-03-27T07:10:11.054Z,58.87
2023-03-27T07:12:41.473Z,58.56
2023-03-27T07:15:11.049Z,57.97
2023-03-27T07:17:48.691Z,57.22
2023-03-27T07:20:19.606Z,58.24
2023-03-27T07:22:48.348Z,58.10
2023-03-27T07:25:32.925Z,58.22
2023-03-27T07:28:02.823Z,56.94
2023-03-27T07:30:32.465Z,55.45
2023-03-27T07:33:01.732Z,55.32
2023-03-27T07:35:33.879Z,54.43
2023-03-27T07:38:31.068Z,54.43
2023-03-27T07:41:09.487Z,54.41
2023-03-27T07:43:57.108Z,53.82
2023-03-27T07:46:26.685Z,54.86
2023-03-27T07:48:58.312Z,54.80
2023-03-27T07:51:27.548Z,55.32
2023-03-27T07:53:58.692Z,55.16
2023-03-27T07:56:35.948Z,56.09
2023-03-27T07:59:30.130Z,55.81
2023-03-27T08:02:03.130Z,56.51
2023-03-27T08:04:32.198Z,56.50
2023-03-27T08:07:05.283Z,58.04
2023-03-27T08:09:33.668Z,56.94
2023-03-27T08:12:02.461Z,56.41
2023-03-27T08:14:31.698Z,56.72
2023-03-27T08:17:14.555Z,56.51
2023-03-27T08:19:46.377Z,57.01
2023-03-27T08:22:14.678Z,57.34
2023-03-27T08:25:07.343Z,57.87
2023-03-27T08:27:36.437Z,58.46
2023-03-27T08:30:06.079Z,58.44
2023-03-27T08:32:36.591Z,59.00
2023-03-27T08:35:08.525Z,59.28
2023-03-27T08:37:36.809Z,60.20
2023-03-27T08:49:49.332Z,60.88
2023-03-27T08:52:34.590Z,59.51
2023-03-27T08:55:18.783Z,58.75
2023-03-27T08:57:55.182Z,58.41
2023-03-27T09:09:52.859Z,56.19
2023-03-27T09:12:39.977Z,56.46
2023-03-27T09:15:22.862Z,55.63
2023-03-27T09:18:20.449Z,55.10
2023-03-27T09:20:56.311Z,54.92
2023-03-27T09:23:34.213Z,54.11
2023-03-27T09:26:19.012Z,53.94
2023-03-27T09:29:19.570Z,52.97
2023-03-27T09:31:53.109Z,52.39
2023-03-27T09:34:26.588Z,52.99
2023-03-27T09:41:38.981Z,53.15
2023-03-27T10:02:26.153Z,54.66
2023-03-27T10:13:54.583Z,56.53
2023-03-27T10:16:25.280Z,56.16
2023-03-27T10:19:00.566Z,56.75
2023-03-27T10:21:39.365Z,55.91
2023-03-27T10:24:33.284Z,55.58
2023-03-27T10:27:31.617Z,55.16
2023-03-27T10:30:36.427Z,55.04
2023-03-27T10:33:36.631Z,54.73
2023-03-27T10:36:13.433Z,54.82
2023-03-27T10:38:42.556Z,54.15
2023-03-27T10:41:27.985Z,54.43
2023-03-27T10:43:57.929Z,54.49
2023-03-27T10:46:29.019Z,54.24
2023-03-27T10:49:25.663Z,54.89
2023-03-27T10:52:03.151Z,55.28
2023-03-27T10:55:05.688Z,54.84
2023-03-27T10:57:34.623Z,54.55
2023-03-27T11:00:18.581Z,54.43
2023-03-27T11:03:02.513Z,54.21
2023-03-27T11:05:53.832Z,54.19
2023-03-27T11:08:55.033Z,54.53
2023-03-27T11:11:47.634Z,54.33
2023-03-27T11:18:56.759Z,53.71
2023-03-27T11:21:49.801Z,53.76
2023-03-27T11:24:38.500Z,54.14
2023-03-27T11:27:37.932Z,54.11
2023-03-27T11:30:13.137Z,54.64
2023-03-27T11:33:05.858Z,54.88
2023-03-27T11:35:39.532Z,55.68
2023-03-27T11:38:31.865Z,55.47
2023-03-27T11:41:02.031Z,55.22
2023-03-27T11:43:30.493Z,55.46
2023-03-27T11:46:36.039Z,55.45
2023-03-27T11:49:38.621Z,56.08
2023-03-27T11:52:18.327Z,56.54
2023-03-27T11:55:34.576Z,57.69
2023-03-27T11:58:20.922Z,58.95
2023-03-27T12:00:59.347Z,59.56
2023-03-27T12:04:00.307Z,59.74
2023-03-27T12:06:53.832Z,60.13
2023-03-27T12:09:22.502Z,60.80
2023-03-27T12:12:30.537Z,60.15
2023-03-27T12:15:17.454Z,58.85
2023-03-27T12:17:54.215Z,57.66
2023-03-27T12:20:41.637Z,56.95
2023-03-27T12:23:45.924Z,55.56
2023-03-27T12:26:35.306Z,55.39
2023-03-27T12:29:49.809Z,57.17
2023-03-27T12:32:42.763Z,57.20
2023-03-27T12:35:14.406Z,57.70
2023-03-27T12:38:02.469Z,57.49
2023-03-27T12:40:38.175Z,57.51
2023-03-27T12:43:29.580Z,57.28
2023-03-27T12:46:25.454Z,57.25
2023-03-27T12:53:26.205Z,54.86
2023-03-27T12:56:19.418Z,53.39
2023-03-27T12:58:54.684Z,53.91
2023-03-27T13:01:48.968Z,53.39
2023-03-27T13:08:32.212Z,51.67
2023-03-27T13:11:40.042Z,51.16
2023-03-27T13:14:18.405Z,51.14
2023-03-27T13:17:08.824Z,51.36
2023-03-27T13:20:30.533Z,51.66
2023-03-27T13:23:37.124Z,51.40
2023-03-27T13:26:31.640Z,51.85
2023-03-27T13:29:00.984Z,51.96
2023-03-27T13:31:45.329Z,52.18
2023-03-27T13:34:41.885Z,52.27
2023-03-27T13:37:14.935Z,52.55
2023-03-27T13:44:26.813Z,54.09
2023-03-27T13:47:23.686Z,54.68
2023-03-27T13:50:48.180Z,54.62
2023-03-27T13:54:07.989Z,54.59
2023-03-27T13:57:09.692Z,54.23
2023-03-27T14:00:10.338Z,54.29
2023-03-27T14:03:21.123Z,55.98
2023-03-27T14:06:30.680Z,57.39
2023-03-27T14:09:06.734Z,58.41
2023-03-27T14:11:57.355Z,59.95
2023-03-27T14:14:48.710Z,62.20
2023-03-27T14:17:28.778Z,61.19
2023-03-27T14:20:13.735Z,61.89
2023-03-27T14:22:53.761Z,61.76
2023-03-27T14:25:34.719Z,61.58
2023-03-27T14:28:32.737Z,61.89
2023-03-27T14:31:07.328Z,62.05
2023-03-27T14:33:58.616Z,62.20
2023-03-27T14:36:31.189Z,61.13
2023-03-27T14:39:22.130Z,61.48
2023-03-27T14:42:01.714Z,61.28
2023-03-27T14:44:35.784Z,62.42
2023-03-27T14:47:16.338Z,62.42
2023-03-27T14:49:49.705Z,61.41
2023-03-27T14:52:36.769Z,61.33
2023-03-27T14:55:27.890Z,61.99
2023-03-27T14:58:20.802Z,61.59
2023-03-27T15:01:00.844Z,61.58
2023-03-27T15:03:39.079Z,62.60
2023-03-27T15:06:19.771Z,63.75
2023-03-27T15:09:11.407Z,65.40
2023-03-27T15:12:00.718Z,66.62
2023-03-27T15:14:35.346Z,68.04
2023-03-27T15:17:19.332Z,67.47
2023-03-27T15:20:13.697Z,67.54
2023-03-27T15:22:54.200Z,69.44
2023-03-27T15:25:35.739Z,69.25
2023-03-27T15:28:14.700Z,69.62
2023-03-27T15:30:51.762Z,70.21
2023-03-27T15:33:34.416Z,70.24
2023-03-27T15:36:26.741Z,69.41
2023-03-27T15:46:53.746Z,68.89
2023-03-27T15:49:27.612Z,69.36
2023-03-27T15:51:56.652Z,69.58
2023-03-27T15:54:28.432Z,68.25
2023-03-27T15:57:10.218Z,68.28
2023-03-27T15:59:51.222Z,69.18
2023-03-27T16:02:25.233Z,69.51
2023-03-27T16:04:57.322Z,70.02
2023-03-27T16:07:48.529Z,69.79
2023-03-27T16:10:35.492Z,70.03
2023-03-27T16:13:06.570Z,70.96
2023-03-27T16:15:41.598Z,71.13
2023-03-27T16:18:22.970Z,71.41
2023-03-27T16:20:51.230Z,71.78
2023-03-27T16:23:19.538Z,72.35
2023-03-27T16:25:47.890Z,72.84
2023-03-27T16:28:17.868Z,72.68
2023-03-27T16:30:46.313Z,72.99
2023-03-27T16:33:17.200Z,73.90
2023-03-27T16:35:45.910Z,75.34
2023-03-27T16:38:14.728Z,75.76
2023-03-27T16:40:44.524Z,77.01
2023-03-27T16:43:12.733Z,77.42
2023-03-27T16:45:41.821Z,78.31
2023-03-27T16:48:11.251Z,78.23
2023-03-27T16:50:39.970Z,79.46
2023-03-27T16:53:08.256Z,80.33
2023-03-27T16:55:36.871Z,80.50
2023-03-27T16:58:05.796Z,80.69
2023-03-27T17:00:34.137Z,81.32
2023-03-27T17:03:02.461Z,82.48
2023-03-27T17:05:34.575Z,81.49
2023-03-27T17:08:05.370Z,81.26
2023-03-27T17:10:35.127Z,81.59
2023-03-27T17:13:03.518Z,81.75
2023-03-27T17:15:36.163Z,81.68
2023-03-27T17:18:05.569Z,81.13
2023-03-27T17:20:35.016Z,82.03
2023-03-27T17:23:03.392Z,82.20
2023-03-27T17:25:31.688Z,82.81
2023-03-27T17:28:00.185Z,83.57
2023-03-27T17:30:38.051Z,83.89
2023-03-27T17:33:08.653Z,83.84
2023-03-27T17:35:41.354Z,84.55
2023-03-27T17:38:10.578Z,84.94
2023-03-27T17:40:40.895Z,85.20
2023-03-27T17:43:09.478Z,85.10
2023-03-27T17:45:42.182Z,84.95
2023-03-27T17:48:11.671Z,85.28
2023-03-27T17:50:40.007Z,85.88
2023-03-27T17:53:08.629Z,85.66
2023-03-27T17:55:38.260Z,85.52
2023-03-27T17:58:09.974Z,84.85
2023-03-27T18:00:41.574Z,84.41
2023-03-27T18:03:10.500Z,84.07
2023-03-27T18:05:40.776Z,84.80
2023-03-27T18:08:11.505Z,85.51
2023-03-27T18:10:48.708Z,86.17
2023-03-27T18:13:20.752Z,87.51
2023-03-27T18:15:58.680Z,88.78
2023-03-27T18:18:27.373Z,89.07
2023-03-27T18:20:55.633Z,89.42
2023-03-27T18:23:24.238Z,88.98
2023-03-27T18:25:56.217Z,87.72
2023-03-27T18:28:25.048Z,86.06
2023-03-27T18:31:04.098Z,85.13
2023-03-27T18:33:32.830Z,85.76
2023-03-27T18:36:01.916Z,86.22
2023-03-27T18:38:30.712Z,87.38
2023-03-27T18:41:00.407Z,88.07
2023-03-27T18:43:29.033Z,89.20
2023-03-27T18:46:02.324Z,89.92
2023-03-27T18:48:31.275Z,90.20
2023-03-27T18:51:05.479Z,91.51
2023-03-27T18:53:34.097Z,91.32
2023-03-27T18:56:03.391Z,91.62
2023-03-27T18:58:32.333Z,92.36
2023-03-27T19:01:01.008Z,92.44
2023-03-27T19:03:35.193Z,91.50
2023-03-27T19:06:07.183Z,91.95
2023-03-27T19:08:42.015Z,91.46
2023-03-27T19:11:10.555Z,91.04
2023-03-27T19:13:57.791Z,90.32
2023-03-27T19:16:31.684Z,90.17
2023-03-27T19:19:18.319Z,90.67
2023-03-27T19:22:08.627Z,91.26
2023-03-27T19:24:42.323Z,91.53
2023-03-27T19:27:23.201Z,92.29
2023-03-27T19:29:53.700Z,89.55
2023-03-27T19:32:22.187Z,88.89
2023-03-27T19:34:50.668Z,90.36
2023-03-27T19:37:18.821Z,91.72
2023-03-27T19:39:47.238Z,93.37
2023-03-27T19:42:15.503Z,93.68
2023-03-27T19:44:44.139Z,92.82
2023-03-27T19:47:12.407Z,93.84
2023-03-27T19:49:42.702Z,94.58
2023-03-27T19:52:30.783Z,94.83
2023-03-27T19:54:59.428Z,94.38
2023-03-27T19:57:27.902Z,94.16
2023-03-27T19:59:56.181Z,94.72
2023-03-27T20:02:24.512Z,94.64
2023-03-27T20:04:53.243Z,95.37
2023-03-27T20:07:21.459Z,95.93
2023-03-27T20:09:50.538Z,95.19
2023-03-27T20:12:20.029Z,96.43
2023-03-27T20:14:58.161Z,96.22
2023-03-27T20:17:37.094Z,95.63
2023-03-27T20:20:06.475Z,96.64
2023-03-27T20:22:40.686Z,97.30
2023-03-27T20:25:11.635Z,98.48
2023-03-27T20:27:40.689Z,98.98
2023-03-27T20:30:14.281Z,99.53
2023-03-27T20:32:42.668Z,99.74
2023-03-27T20:35:22.893Z,100.00
2023-03-27T20:37:57.988Z,100.00
2023-03-27T20:40:34.756Z,100.00
2023-03-27T20:43:08.183Z,100.00
2023-03-27T20:45:43.140Z,100.00
2023-03-27T20:48:16.316Z,100.00
2023-03-27T20:50:49.262Z,100.00
2023-03-27T20:53:19.179Z,100.00
2023-03-27T20:55:59.047Z,100.00
2023-03-27T20:58:29.135Z,100.00
2023-03-27T21:00:58.805Z,100.00
2023-03-27T21:03:32.102Z,100.00
2023-03-27T21:06:04.250Z,100.00
2023-03-27T21:08:32.744Z,100.00
2023-03-27T21:11:02.376Z,100.00
2023-03-27T21:13:31.214Z,100.00
2023-03-27T21:15:59.819Z,100.00
2023-03-27T21:18:28.319Z,100.00
2023-03-27T21:20:56.704Z,100.00
2023-03-27T21:23:25.078Z,100.00
2023-03-27T21:25:53.476Z,100.00
2023-03-27T21:28:22.070Z,100.00
2023-03-27T21:30:50.472Z,100.00
2023-03-27T21:33:18.934Z,100.00
2023-03-27T21:35:48.735Z,100.00
2023-03-27T21:38:18.459Z,100.00
2023-03-27T21:40:47.733Z,100.00
2023-03-27T21:43:16.169Z,100.00
2023-03-27T21:45:45.249Z,100.00
2023-03-27T21:48:13.511Z,100.00
2023-03-27T21:50:42.007Z,100.00
2023-03-27T21:53:11.388Z,100.00
2023-03-27T21:55:39.631Z,100.00
2023-03-27T21:58:08.063Z,100.00
2023-03-27T22:00:36.327Z,100.00
2023-03-27T22:03:04.775Z,100.00
2023-03-27T22:05:36.779Z,100.00
2023-03-27T22:08:05.227Z,100.00
2023-03-27T22:10:35.086Z,100.00
2023-03-27T22:13:04.057Z,100.00
2023-03-27T22:15:32.917Z,100.00
2023-03-27T22:18:01.697Z,100.00
2023-03-27T22:20:30.786Z,100.00
2023-03-27T22:22:58.916Z,100.00
2023-03-27T22:25:27.095Z,100.00
2023-03-27T22:27:55.433Z,100.00
2023-03-27T22:30:23.768Z,100.00
2023-03-27T22:32:51.834Z,100.00
2023-03-27T22:35:20.135Z,100.00
2023-03-27T22:37:48.372Z,100.00
2023-03-27T22:40:16.779Z,100.00
2023-03-27T22:42:44.951Z,100.00
2023-03-27T22:45:13.620Z,100.00
2023-03-27T22:47:41.933Z,100.00
2023-03-27T22:50:11.052Z,100.00
2023-03-27T22:52:39.147Z,100.00
2023-03-27T22:55:08.111Z,100.00
2023-03-27T22:57:37.065Z,100.00
2023-03-27T23:00:07.018Z,100.00
2023-03-27T23:02:35.559Z,100.00
2023-03-27T23:05:04.514Z,100.00
2023-03-27T23:07:32.850Z,100.00
2023-03-27T23:10:01.143Z,100.00
2023-03-27T23:12:29.227Z,100.00
2023-03-27T23:14:57.359Z,100.00
2023-03-27T23:17:26.064Z,100.00
2023-03-27T23:19:54.532Z,100.00
2023-03-27T23:22:22.708Z,100.00
2023-03-27T23:24:51.131Z,100.00
2023-03-27T23:27:19.368Z,99.95
2023-03-27T23:29:48.292Z,100.00
2023-03-27T23:32:16.349Z,100.00
2023-03-27T23:34:44.921Z,100.00
2023-03-27T23:37:13.601Z,99.84
2023-03-27T23:39:41.806Z,100.00
2023-03-27T23:42:09.904Z,99.94
2023-03-27T23:44:38.131Z,100.00
2023-03-27T23:47:06.563Z,100.00
2023-03-27T23:49:35.005Z,100.00
2023-03-27T23:52:03.477Z,100.00
2023-03-27T23:54:31.682Z,100.00
2023-03-27T23:57:00.400Z,100.00
2023-03-27T23:59:28.772Z,100.00
